sensor_id;sensor_type;location;lat;lon;timestamp;pressure;altitude;pressure_sealevel;temperature;humidity
65832;BME280;52593;42.648;23.332;2023-03-14T00:00:31;94756.03;;;0.71;68.89
65832;BME280;52593;42.648;23.332;2023-03-14T00:02:56;94758.78;;;0.69;69.12
65832;BME280;52593;42.648;23.332;2023-03-14T00:05:21;94749.31;;;0.67;69.49
65832;BME280;52593;42.648;23.332;2023-03-14T00:07:47;94753.88;;;0.65;69.06
65832;BME280;52593;42.648;23.332;2023-03-14T00:10:14;94748.25;;;0.69;69.34
65832;BME280;52593;42.648;23.332;2023-03-14T00:12:40;94751.59;;;0.71;68.44
65832;BME280;52593;42.648;23.332;2023-03-14T00:15:06;94743.09;;;0.68;68.87
65832;BME280;52593;42.648;23.332;2023-03-14T00:17:33;94742.88;;;0.71;68.47
65832;BME280;52593;42.648;23.332;2023-03-14T00:19:59;94731.13;;;0.64;68.98
65832;BME280;52593;42.648;23.332;2023-03-14T00:22:31;94722.97;;;0.56;69.95
65832;BME280;52593;42.648;23.332;2023-03-14T00:24:57;94712.44;;;0.56;69.25
65832;BME280;52593;42.648;23.332;2023-03-14T00:27:22;94718.66;;;0.55;70.23
65832;BME280;52593;42.648;23.332;2023-03-14T00:29:48;94710.28;;;0.61;70.00
65832;BME280;52593;42.648;23.332;2023-03-14T00:32:13;94705.13;;;0.59;69.17
65832;BME280;52593;42.648;23.332;2023-03-14T00:34:38;94696.53;;;0.57;69.34
65832;BME280;52593;42.648;23.332;2023-03-14T00:37:05;94702.88;;;0.55;69.10
65832;BME280;52593;42.648;23.332;2023-03-14T00:39:30;94710.16;;;0.51;69.62
65832;BME280;52593;42.648;23.332;2023-03-14T00:41:55;94695.81;;;0.32;70.45
65832;BME280;52593;42.648;23.332;2023-03-14T00:44:21;94696.38;;;0.47;70.24
65832;BME280;52593;42.648;23.332;2023-03-14T00:46:46;94686.56;;;0.38;69.08
65832;BME280;52593;42.648;23.332;2023-03-14T00:49:12;94686.34;;;0.41;69.50
65832;BME280;52593;42.648;23.332;2023-03-14T00:51:37;94692.22;;;0.45;68.67
65832;BME280;52593;42.648;23.332;2023-03-14T00:54:02;94696.63;;;0.44;69.02
65832;BME280;52593;42.648;23.332;2023-03-14T00:56:28;94686.69;;;0.37;69.92
65832;BME280;52593;42.648;23.332;2023-03-14T00:58:55;94689.78;;;0.30;70.21
65832;BME280;52593;42.648;23.332;2023-03-14T01:01:21;94698.91;;;0.26;70.63
65832;BME280;52593;42.648;23.332;2023-03-14T01:03:47;94683.19;;;0.13;70.40
65832;BME280;52593;42.648;23.332;2023-03-14T01:06:17;94689.91;;;0.17;71.54
65832;BME280;52593;42.648;23.332;2023-03-14T01:08:43;94690.38;;;0.11;71.21
65832;BME280;52593;42.648;23.332;2023-03-14T01:11:11;94683.41;;;0.10;72.06
65832;BME280;52593;42.648;23.332;2023-03-14T01:13:37;94686.91;;;0.11;71.26
65832;BME280;52593;42.648;23.332;2023-03-14T01:16:05;94673.38;;;0.04;72.08
65832;BME280;52593;42.648;23.332;2023-03-14T01:18:32;94672.41;;;0.05;71.88
65832;BME280;52593;42.648;23.332;2023-03-14T01:20:57;94667.50;;;0.01;72.44
65832;BME280;52593;42.648;23.332;2023-03-14T01:23:23;94674.88;;;-0.05;73.37
65832;BME280;52593;42.648;23.332;2023-03-14T01:25:48;94666.19;;;-0.05;73.30
65832;BME280;52593;42.648;23.332;2023-03-14T01:28:13;94667.63;;;-0.01;73.13
65832;BME280;52593;42.648;23.332;2023-03-14T01:30:40;94660.31;;;-0.09;72.50
65832;BME280;52593;42.648;23.332;2023-03-14T01:33:05;94670.97;;;0.01;72.41
65832;BME280;52593;42.648;23.332;2023-03-14T01:35:31;94665.81;;;-0.01;72.93
65832;BME280;52593;42.648;23.332;2023-03-14T01:37:56;94645.97;;;-0.05;72.52
65832;BME280;52593;42.648;23.332;2023-03-14T01:40:22;94669.56;;;0.08;72.14
65832;BME280;52593;42.648;23.332;2023-03-14T01:43:00;94649.09;;;0.01;73.31
65832;BME280;52593;42.648;23.332;2023-03-14T01:48:25;94646.19;;;-0.08;72.72
65832;BME280;52593;42.648;23.332;2023-03-14T01:50:53;94647.53;;;-0.02;73.47
65832;BME280;52593;42.648;23.332;2023-03-14T01:53:18;94647.75;;;-0.05;73.89
65832;BME280;52593;42.648;23.332;2023-03-14T01:55:47;94633.97;;;-0.20;73.21
65832;BME280;52593;42.648;23.332;2023-03-14T01:58:14;94639.03;;;-0.06;72.87
65832;BME280;52593;42.648;23.332;2023-03-14T02:00:41;94641.44;;;-0.03;73.06
65832;BME280;52593;42.648;23.332;2023-03-14T02:03:11;94645.25;;;-0.07;73.56
65832;BME280;52593;42.648;23.332;2023-03-14T02:05:41;94641.50;;;-0.15;74.00
65832;BME280;52593;42.648;23.332;2023-03-14T02:08:10;94649.28;;;-0.14;73.10
65832;BME280;52593;42.648;23.332;2023-03-14T02:10:43;94633.25;;;-0.22;73.34
65832;BME280;52593;42.648;23.332;2023-03-14T02:13:10;94649.88;;;-0.22;74.52
65832;BME280;52593;42.648;23.332;2023-03-14T02:15:36;94638.28;;;-0.30;74.28
65832;BME280;52593;42.648;23.332;2023-03-14T02:18:03;94632.38;;;-0.34;74.86
65832;BME280;52593;42.648;23.332;2023-03-14T02:23:15;94623.69;;;-0.23;74.09
65832;BME280;52593;42.648;23.332;2023-03-14T02:25:54;94629.06;;;-0.25;74.04
65832;BME280;52593;42.648;23.332;2023-03-14T02:28:22;94634.66;;;-0.29;74.63
65832;BME280;52593;42.648;23.332;2023-03-14T02:30:48;94632.66;;;-0.26;74.41
65832;BME280;52593;42.648;23.332;2023-03-14T02:33:16;94630.50;;;-0.32;74.38
65832;BME280;52593;42.648;23.332;2023-03-14T02:35:58;94632.50;;;-0.36;74.96
65832;BME280;52593;42.648;23.332;2023-03-14T02:41:05;94638.84;;;-0.38;74.89
65832;BME280;52593;42.648;23.332;2023-03-14T02:43:30;94644.69;;;-0.34;74.85
65832;BME280;52593;42.648;23.332;2023-03-14T02:45:56;94639.09;;;-0.30;74.01
65832;BME280;52593;42.648;23.332;2023-03-14T02:48:22;94643.28;;;-0.27;73.29
65832;BME280;52593;42.648;23.332;2023-03-14T02:50:53;94641.63;;;-0.28;72.63
65832;BME280;52593;42.648;23.332;2023-03-14T02:53:23;94629.28;;;-0.39;72.84
65832;BME280;52593;42.648;23.332;2023-03-14T02:55:50;94637.63;;;-0.34;73.27
65832;BME280;52593;42.648;23.332;2023-03-14T02:58:16;94644.34;;;-0.41;74.46
65832;BME280;52593;42.648;23.332;2023-03-14T03:00:42;94636.28;;;-0.51;74.49
65832;BME280;52593;42.648;23.332;2023-03-14T03:03:07;94645.03;;;-0.50;74.31
65832;BME280;52593;42.648;23.332;2023-03-14T03:05:33;94634.28;;;-0.47;73.88
65832;BME280;52593;42.648;23.332;2023-03-14T03:07:59;94640.72;;;-0.51;74.42
65832;BME280;52593;42.648;23.332;2023-03-14T03:10:24;94635.78;;;-0.56;75.13
65832;BME280;52593;42.648;23.332;2023-03-14T03:12:50;94640.03;;;-0.42;74.50
65832;BME280;52593;42.648;23.332;2023-03-14T03:15:17;94633.94;;;-0.43;72.82
65832;BME280;52593;42.648;23.332;2023-03-14T03:17:42;94633.06;;;-0.55;74.27
65832;BME280;52593;42.648;23.332;2023-03-14T03:20:08;94630.78;;;-0.48;74.36
65832;BME280;52593;42.648;23.332;2023-03-14T03:22:35;94631.25;;;-0.54;73.83
65832;BME280;52593;42.648;23.332;2023-03-14T03:25:01;94628.47;;;-0.64;74.54
65832;BME280;52593;42.648;23.332;2023-03-14T03:27:26;94628.53;;;-0.77;74.91
65832;BME280;52593;42.648;23.332;2023-03-14T03:29:52;94622.44;;;-0.77;75.34
65832;BME280;52593;42.648;23.332;2023-03-14T03:32:17;94634.41;;;-0.73;75.55
65832;BME280;52593;42.648;23.332;2023-03-14T03:34:43;94625.91;;;-0.77;75.87
65832;BME280;52593;42.648;23.332;2023-03-14T03:37:08;94636.84;;;-0.83;76.44
65832;BME280;52593;42.648;23.332;2023-03-14T03:39:33;94628.03;;;-0.82;76.07
65832;BME280;52593;42.648;23.332;2023-03-14T03:41:59;94627.94;;;-0.80;75.95
65832;BME280;52593;42.648;23.332;2023-03-14T03:44:24;94633.44;;;-0.72;75.29
65832;BME280;52593;42.648;23.332;2023-03-14T03:46:49;94639.34;;;-0.68;74.95
65832;BME280;52593;42.648;23.332;2023-03-14T03:49:15;94628.53;;;-0.77;75.85
65832;BME280;52593;42.648;23.332;2023-03-14T03:51:40;94645.88;;;-0.74;75.52
65832;BME280;52593;42.648;23.332;2023-03-14T03:54:06;94643.25;;;-0.74;74.87
65832;BME280;52593;42.648;23.332;2023-03-14T03:56:31;94651.69;;;-0.58;74.82
65832;BME280;52593;42.648;23.332;2023-03-14T03:58:57;94648.00;;;-0.55;73.90
65832;BME280;52593;42.648;23.332;2023-03-14T04:01:23;94648.72;;;-0.53;73.09
65832;BME280;52593;42.648;23.332;2023-03-14T04:03:48;94649.16;;;-0.59;74.22
65832;BME280;52593;42.648;23.332;2023-03-14T04:06:14;94653.06;;;-0.65;74.29
65832;BME280;52593;42.648;23.332;2023-03-14T04:08:39;94644.19;;;-0.75;75.15
65832;BME280;52593;42.648;23.332;2023-03-14T04:11:07;94646.53;;;-0.83;76.02
65832;BME280;52593;42.648;23.332;2023-03-14T04:13:32;94643.31;;;-0.87;75.92
65832;BME280;52593;42.648;23.332;2023-03-14T04:15:58;94639.09;;;-0.90;76.57
65832;BME280;52593;42.648;23.332;2023-03-14T04:18:23;94635.88;;;-0.93;76.13
65832;BME280;52593;42.648;23.332;2023-03-14T04:20:56;94636.38;;;-0.88;76.37
65832;BME280;52593;42.648;23.332;2023-03-14T04:23:23;94633.28;;;-0.82;76.57
65832;BME280;52593;42.648;23.332;2023-03-14T04:25:52;94638.94;;;-0.75;76.06
65832;BME280;52593;42.648;23.332;2023-03-14T04:28:18;94626.22;;;-0.81;75.64
65832;BME280;52593;42.648;23.332;2023-03-14T04:30:43;94621.22;;;-0.84;76.90
65832;BME280;52593;42.648;23.332;2023-03-14T04:33:09;94615.75;;;-1.05;76.92
65832;BME280;52593;42.648;23.332;2023-03-14T04:35:34;94605.59;;;-1.10;77.53
65832;BME280;52593;42.648;23.332;2023-03-14T04:38:00;94616.47;;;-1.03;77.78
65832;BME280;52593;42.648;23.332;2023-03-14T04:40:25;94612.91;;;-1.02;77.06
65832;BME280;52593;42.648;23.332;2023-03-14T04:42:51;94612.38;;;-1.08;77.48
65832;BME280;52593;42.648;23.332;2023-03-14T04:45:16;94603.13;;;-1.00;77.96
65832;BME280;52593;42.648;23.332;2023-03-14T04:47:42;94602.63;;;-1.05;77.58
65832;BME280;52593;42.648;23.332;2023-03-14T04:50:08;94601.88;;;-1.08;77.57
65832;BME280;52593;42.648;23.332;2023-03-14T04:52:34;94598.03;;;-1.15;77.70
65832;BME280;52593;42.648;23.332;2023-03-14T04:54:59;94593.88;;;-1.06;77.99
65832;BME280;52593;42.648;23.332;2023-03-14T04:57:24;94588.88;;;-1.09;77.67
65832;BME280;52593;42.648;23.332;2023-03-14T04:59:50;94588.03;;;-1.10;78.37
65832;BME280;52593;42.648;23.332;2023-03-14T05:02:15;94588.31;;;-1.01;78.24
65832;BME280;52593;42.648;23.332;2023-03-14T05:04:41;94590.69;;;-0.98;77.74
65832;BME280;52593;42.648;23.332;2023-03-14T05:07:06;94588.38;;;-0.90;78.00
65832;BME280;52593;42.648;23.332;2023-03-14T05:09:31;94584.28;;;-0.94;77.69
65832;BME280;52593;42.648;23.332;2023-03-14T05:11:57;94592.31;;;-0.84;77.09
65832;BME280;52593;42.648;23.332;2023-03-14T05:14:22;94590.19;;;-0.79;77.21
65832;BME280;52593;42.648;23.332;2023-03-14T05:16:48;94584.59;;;-0.75;76.80
65832;BME280;52593;42.648;23.332;2023-03-14T05:19:13;94592.97;;;-0.69;76.81
65832;BME280;52593;42.648;23.332;2023-03-14T05:21:38;94600.63;;;-0.66;76.99
65832;BME280;52593;42.648;23.332;2023-03-14T05:24:04;94584.63;;;-0.63;76.17
65832;BME280;52593;42.648;23.332;2023-03-14T05:26:29;94585.50;;;-0.51;76.19
65832;BME280;52593;42.648;23.332;2023-03-14T05:28:55;94578.72;;;-0.43;75.93
65832;BME280;52593;42.648;23.332;2023-03-14T05:31:20;94584.47;;;-0.38;75.71
65832;BME280;52593;42.648;23.332;2023-03-14T05:33:46;94577.75;;;-0.42;77.26
65832;BME280;52593;42.648;23.332;2023-03-14T05:36:11;94580.31;;;-0.29;76.54
65832;BME280;52593;42.648;23.332;2023-03-14T05:38:37;94585.56;;;-0.17;76.36
65832;BME280;52593;42.648;23.332;2023-03-14T05:41:02;94572.66;;;-0.09;75.40
65832;BME280;52593;42.648;23.332;2023-03-14T05:43:28;94586.44;;;0.06;75.06
65832;BME280;52593;42.648;23.332;2023-03-14T05:45:53;94577.59;;;0.07;74.91
65832;BME280;52593;42.648;23.332;2023-03-14T05:48:19;94588.09;;;0.18;73.34
65832;BME280;52593;42.648;23.332;2023-03-14T05:50:45;94584.28;;;0.22;72.48
65832;BME280;52593;42.648;23.332;2023-03-14T05:53:10;94581.03;;;0.52;70.80
65832;BME280;52593;42.648;23.332;2023-03-14T05:55:35;94573.00;;;0.65;67.74
65832;BME280;52593;42.648;23.332;2023-03-14T05:58:01;94572.88;;;0.67;66.75
65832;BME280;52593;42.648;23.332;2023-03-14T06:00:26;94579.13;;;0.66;67.00
65832;BME280;52593;42.648;23.332;2023-03-14T06:02:52;94586.41;;;0.62;66.96
65832;BME280;52593;42.648;23.332;2023-03-14T06:05:17;94585.44;;;0.52;65.83
65832;BME280;52593;42.648;23.332;2023-03-14T06:07:43;94575.91;;;0.51;66.63
65832;BME280;52593;42.648;23.332;2023-03-14T06:10:09;94578.41;;;0.52;67.34
65832;BME280;52593;42.648;23.332;2023-03-14T06:12:34;94553.31;;;0.37;67.36
65832;BME280;52593;42.648;23.332;2023-03-14T06:15:00;94570.25;;;0.56;67.37
65832;BME280;52593;42.648;23.332;2023-03-14T06:17:25;94566.53;;;0.58;65.91
65832;BME280;52593;42.648;23.332;2023-03-14T06:19:51;94574.56;;;0.68;66.20
65832;BME280;52593;42.648;23.332;2023-03-14T06:22:16;94575.25;;;0.70;66.68
65832;BME280;52593;42.648;23.332;2023-03-14T06:24:41;94572.75;;;0.68;66.16
65832;BME280;52593;42.648;23.332;2023-03-14T06:27:07;94577.63;;;0.84;66.50
65832;BME280;52593;42.648;23.332;2023-03-14T06:29:32;94581.06;;;0.96;66.10
65832;BME280;52593;42.648;23.332;2023-03-14T06:31:57;94562.22;;;1.01;65.02
65832;BME280;52593;42.648;23.332;2023-03-14T06:34:23;94583.34;;;1.75;74.32
65832;BME280;52593;42.648;23.332;2023-03-14T06:36:48;94576.00;;;1.79;63.74
65832;BME280;52593;42.648;23.332;2023-03-14T06:39:14;94592.72;;;1.68;63.20
65832;BME280;52593;42.648;23.332;2023-03-14T06:41:39;94590.94;;;1.48;64.80
65832;BME280;52593;42.648;23.332;2023-03-14T06:44:05;94580.00;;;1.52;64.74
65832;BME280;52593;42.648;23.332;2023-03-14T06:46:30;94577.06;;;1.46;64.08
65832;BME280;52593;42.648;23.332;2023-03-14T06:48:55;94559.09;;;1.60;64.09
65832;BME280;52593;42.648;23.332;2023-03-14T06:51:21;94555.94;;;1.67;63.12
65832;BME280;52593;42.648;23.332;2023-03-14T06:53:46;94556.78;;;1.67;63.11
65832;BME280;52593;42.648;23.332;2023-03-14T06:56:11;94548.09;;;1.76;62.59
65832;BME280;52593;42.648;23.332;2023-03-14T06:58:37;94545.34;;;1.78;62.56
65832;BME280;52593;42.648;23.332;2023-03-14T07:01:02;94552.63;;;1.95;62.86
65832;BME280;52593;42.648;23.332;2023-03-14T07:03:28;94546.91;;;2.11;62.47
65832;BME280;52593;42.648;23.332;2023-03-14T07:05:54;94546.22;;;2.19;61.49
65832;BME280;52593;42.648;23.332;2023-03-14T07:08:19;94543.91;;;2.36;61.64
65832;BME280;52593;42.648;23.332;2023-03-14T07:10:44;94529.19;;;2.33;63.27
65832;BME280;52593;42.648;23.332;2023-03-14T07:13:10;94534.66;;;2.51;62.05
65832;BME280;52593;42.648;23.332;2023-03-14T07:15:36;94532.31;;;2.58;62.32
65832;BME280;52593;42.648;23.332;2023-03-14T07:18:01;94519.78;;;2.60;63.98
65832;BME280;52593;42.648;23.332;2023-03-14T07:20:26;94521.09;;;2.75;60.46
65832;BME280;52593;42.648;23.332;2023-03-14T07:22:52;94530.81;;;2.84;61.51
65832;BME280;52593;42.648;23.332;2023-03-14T07:25:17;94526.81;;;2.90;60.69
65832;BME280;52593;42.648;23.332;2023-03-14T07:27:44;94537.09;;;3.03;58.91
65832;BME280;52593;42.648;23.332;2023-03-14T07:30:10;94521.25;;;3.03;58.39
65832;BME280;52593;42.648;23.332;2023-03-14T07:32:36;94528.34;;;3.02;58.27
65832;BME280;52593;42.648;23.332;2023-03-14T07:35:01;94520.28;;;3.14;57.33
65832;BME280;52593;42.648;23.332;2023-03-14T07:37:27;94522.22;;;3.21;57.99
65832;BME280;52593;42.648;23.332;2023-03-14T07:39:52;94515.41;;;3.29;57.75
65832;BME280;52593;42.648;23.332;2023-03-14T07:42:17;94509.03;;;3.31;55.88
65832;BME280;52593;42.648;23.332;2023-03-14T07:44:43;94511.09;;;3.37;56.08
65832;BME280;52593;42.648;23.332;2023-03-14T07:47:08;94492.47;;;3.29;56.33
65832;BME280;52593;42.648;23.332;2023-03-14T07:49:34;94501.22;;;3.49;55.18
65832;BME280;52593;42.648;23.332;2023-03-14T07:51:59;94491.31;;;3.51;54.98
65832;BME280;52593;42.648;23.332;2023-03-14T07:54:24;94497.72;;;3.59;54.37
65832;BME280;52593;42.648;23.332;2023-03-14T07:56:50;94497.81;;;3.67;54.79
65832;BME280;52593;42.648;23.332;2023-03-14T07:59:17;94501.72;;;3.63;54.72
65832;BME280;52593;42.648;23.332;2023-03-14T08:01:42;94503.41;;;3.64;54.52
65832;BME280;52593;42.648;23.332;2023-03-14T08:04:08;94490.84;;;3.66;54.61
65832;BME280;52593;42.648;23.332;2023-03-14T08:06:35;94501.09;;;3.88;54.08
65832;BME280;52593;42.648;23.332;2023-03-14T08:09:01;94494.66;;;4.01;53.77
65832;BME280;52593;42.648;23.332;2023-03-14T08:11:26;94487.13;;;4.06;53.11
65832;BME280;52593;42.648;23.332;2023-03-14T08:13:52;94487.81;;;4.08;52.90
65832;BME280;52593;42.648;23.332;2023-03-14T08:16:17;94500.47;;;4.14;52.83
65832;BME280;52593;42.648;23.332;2023-03-14T08:18:43;94494.06;;;4.17;52.26
65832;BME280;52593;42.648;23.332;2023-03-14T08:21:09;94497.47;;;4.27;52.34
65832;BME280;52593;42.648;23.332;2023-03-14T08:23:35;94484.53;;;4.24;52.08
65832;BME280;52593;42.648;23.332;2023-03-14T08:26:00;94489.94;;;4.32;52.08
65832;BME280;52593;42.648;23.332;2023-03-14T08:28:26;94492.16;;;4.37;51.98
65832;BME280;52593;42.648;23.332;2023-03-14T08:30:56;94484.50;;;4.61;49.71
65832;BME280;52593;42.648;23.332;2023-03-14T08:33:22;94486.38;;;4.69;48.63
65832;BME280;52593;42.648;23.332;2023-03-14T08:35:48;94481.16;;;4.77;49.23
65832;BME280;52593;42.648;23.332;2023-03-14T08:38:13;94480.88;;;4.80;49.83
65832;BME280;52593;42.648;23.332;2023-03-14T08:40:38;94476.94;;;4.85;49.15
65832;BME280;52593;42.648;23.332;2023-03-14T08:43:04;94477.00;;;4.93;51.09
65832;BME280;52593;42.648;23.332;2023-03-14T08:45:29;94477.63;;;5.05;50.61
65832;BME280;52593;42.648;23.332;2023-03-14T08:47:54;94466.09;;;5.14;48.81
65832;BME280;52593;42.648;23.332;2023-03-14T08:50:20;94453.91;;;5.21;48.35
65832;BME280;52593;42.648;23.332;2023-03-14T08:52:45;94451.97;;;5.49;48.13
65832;BME280;52593;42.648;23.332;2023-03-14T08:55:11;94452.25;;;5.64;46.38
65832;BME280;52593;42.648;23.332;2023-03-14T08:57:37;94438.28;;;5.62;46.35
65832;BME280;52593;42.648;23.332;2023-03-14T09:00:03;94449.94;;;5.69;45.96
65832;BME280;52593;42.648;23.332;2023-03-14T09:02:31;94434.28;;;5.84;45.74
65832;BME280;52593;42.648;23.332;2023-03-14T09:04:56;94431.38;;;5.96;45.64
65832;BME280;52593;42.648;23.332;2023-03-14T09:07:22;94422.47;;;6.05;45.13
65832;BME280;52593;42.648;23.332;2023-03-14T09:09:47;94425.78;;;6.07;44.90
65832;BME280;52593;42.648;23.332;2023-03-14T09:12:12;94410.75;;;6.24;45.11
65832;BME280;52593;42.648;23.332;2023-03-14T09:14:38;94410.34;;;6.53;44.69
65832;BME280;52593;42.648;23.332;2023-03-14T09:17:04;94393.72;;;6.51;45.90
65832;BME280;52593;42.648;23.332;2023-03-14T09:19:30;94399.78;;;6.86;44.59
65832;BME280;52593;42.648;23.332;2023-03-14T09:21:55;94385.34;;;6.97;45.66
65832;BME280;52593;42.648;23.332;2023-03-14T09:24:20;94391.63;;;7.21;44.99
65832;BME280;52593;42.648;23.332;2023-03-14T09:26:46;94384.13;;;7.41;42.19
65832;BME280;52593;42.648;23.332;2023-03-14T09:29:12;94377.47;;;7.53;42.16
65832;BME280;52593;42.648;23.332;2023-03-14T09:31:37;94371.97;;;7.55;43.17
65832;BME280;52593;42.648;23.332;2023-03-14T09:34:03;94365.94;;;7.77;42.16
65832;BME280;52593;42.648;23.332;2023-03-14T09:36:29;94363.88;;;7.96;40.24
65832;BME280;52593;42.648;23.332;2023-03-14T09:38:55;94357.91;;;7.85;40.92
65832;BME280;52593;42.648;23.332;2023-03-14T09:41:35;94354.75;;;7.90;42.16
65832;BME280;52593;42.648;23.332;2023-03-14T09:44:52;94347.13;;;8.18;41.26
65832;BME280;52593;42.648;23.332;2023-03-14T09:47:03;94348.69;;;8.36;40.17
65832;BME280;52593;42.648;23.332;2023-03-14T09:49:36;94329.81;;;8.54;39.49
65832;BME280;52593;42.648;23.332;2023-03-14T09:52:11;94327.94;;;8.63;39.34
65832;BME280;52593;42.648;23.332;2023-03-14T09:54:45;94331.94;;;8.82;38.88
65832;BME280;52593;42.648;23.332;2023-03-14T09:57:16;94322.06;;;8.90;38.76
65832;BME280;52593;42.648;23.332;2023-03-14T09:59:44;94315.50;;;9.16;39.12
65832;BME280;52593;42.648;23.332;2023-03-14T10:02:19;94304.97;;;9.38;38.12
65832;BME280;52593;42.648;23.332;2023-03-14T10:04:47;94304.78;;;9.54;36.93
65832;BME280;52593;42.648;23.332;2023-03-14T10:07:15;94313.16;;;9.66;37.62
65832;BME280;52593;42.648;23.332;2023-03-14T10:09:43;94296.22;;;9.74;37.15
65832;BME280;52593;42.648;23.332;2023-03-14T10:12:09;94293.72;;;9.87;37.42
65832;BME280;52593;42.648;23.332;2023-03-14T10:14:37;94293.84;;;9.94;36.93
65832;BME280;52593;42.648;23.332;2023-03-14T10:17:12;94292.41;;;10.13;37.83
65832;BME280;52593;42.648;23.332;2023-03-14T10:19:54;94287.00;;;10.43;36.87
65832;BME280;52593;42.648;23.332;2023-03-14T10:22:21;94280.56;;;10.74;36.96
65832;BME280;52593;42.648;23.332;2023-03-14T10:24:54;94265.56;;;11.01;36.84
65832;BME280;52593;42.648;23.332;2023-03-14T10:27:27;94259.00;;;11.03;36.65
65832;BME280;52593;42.648;23.332;2023-03-14T10:29:56;94252.50;;;11.41;35.80
65832;BME280;52593;42.648;23.332;2023-03-14T10:32:28;94238.69;;;11.16;36.85
65832;BME280;52593;42.648;23.332;2023-03-14T10:37:34;94228.19;;;11.42;35.03
65832;BME280;52593;42.648;23.332;2023-03-14T10:40:02;94226.72;;;11.12;35.95
65832;BME280;52593;42.648;23.332;2023-03-14T10:42:39;94213.81;;;11.22;37.07
65832;BME280;52593;42.648;23.332;2023-03-14T10:45:25;94216.31;;;11.58;36.95
65832;BME280;52593;42.648;23.332;2023-03-14T10:47:53;94208.03;;;11.53;36.57
65832;BME280;52593;42.648;23.332;2023-03-14T10:50:30;94207.53;;;11.78;36.98
65832;BME280;52593;42.648;23.332;2023-03-14T10:52:57;94197.59;;;12.07;35.94
65832;BME280;52593;42.648;23.332;2023-03-14T10:55:25;94182.63;;;11.91;37.52
65832;BME280;52593;42.648;23.332;2023-03-14T10:57:51;94184.34;;;11.99;37.27
65832;BME280;52593;42.648;23.332;2023-03-14T11:00:21;94176.13;;;12.07;36.84
65832;BME280;52593;42.648;23.332;2023-03-14T11:05:56;94165.91;;;12.64;36.52
65832;BME280;52593;42.648;23.332;2023-03-14T11:11:02;94157.00;;;12.37;36.97
65832;BME280;52593;42.648;23.332;2023-03-14T11:17:05;94149.16;;;12.95;35.42
65832;BME280;52593;42.648;23.332;2023-03-14T11:19:43;94140.91;;;13.03;35.08
65832;BME280;52593;42.648;23.332;2023-03-14T11:22:39;94103.13;;;12.92;36.63
65832;BME280;52593;42.648;23.332;2023-03-14T11:25:26;94118.16;;;13.06;35.77
65832;BME280;52593;42.648;23.332;2023-03-14T11:30:54;94095.63;;;13.14;34.77
65832;BME280;52593;42.648;23.332;2023-03-14T11:33:35;94097.16;;;12.63;35.12
65832;BME280;52593;42.648;23.332;2023-03-14T11:36:12;94085.31;;;13.04;35.13
65832;BME280;52593;42.648;23.332;2023-03-14T11:38:52;94083.25;;;13.13;34.71
65832;BME280;52593;42.648;23.332;2023-03-14T11:41:33;94077.81;;;13.46;33.47
65832;BME280;52593;42.648;23.332;2023-03-14T11:44:04;94073.97;;;13.67;33.32
65832;BME280;52593;42.648;23.332;2023-03-14T11:46:42;94060.16;;;13.96;33.75
65832;BME280;52593;42.648;23.332;2023-03-14T11:49:30;94061.84;;;13.97;33.10
65832;BME280;52593;42.648;23.332;2023-03-14T11:52:03;94049.19;;;14.29;32.43
65832;BME280;52593;42.648;23.332;2023-03-14T11:57:01;94039.13;;;14.43;31.64
65832;BME280;52593;42.648;23.332;2023-03-14T12:00:02;94044.31;;;14.44;32.61
65832;BME280;52593;42.648;23.332;2023-03-14T12:10:51;94018.97;;;14.52;32.28
65832;BME280;52593;42.648;23.332;2023-03-14T12:13:18;94001.47;;;14.87;32.26
65832;BME280;52593;42.648;23.332;2023-03-14T12:15:55;93997.16;;;14.86;30.22
65832;BME280;52593;42.648;23.332;2023-03-14T12:20:58;93991.66;;;14.74;31.39
65832;BME280;52593;42.648;23.332;2023-03-14T12:23:26;93979.09;;;14.68;31.02
65832;BME280;52593;42.648;23.332;2023-03-14T12:28:48;93978.28;;;14.86;30.84
65832;BME280;52593;42.648;23.332;2023-03-14T12:31:47;93973.78;;;15.16;29.62
65832;BME280;52593;42.648;23.332;2023-03-14T12:50:12;93949.03;;;14.89;30.75
65832;BME280;52593;42.648;23.332;2023-03-14T12:55:24;93935.47;;;15.14;30.40
65832;BME280;52593;42.648;23.332;2023-03-14T13:00:58;93921.59;;;16.02;29.49
65832;BME280;52593;42.648;23.332;2023-03-14T13:03:37;93912.47;;;16.27;28.71
65832;BME280;52593;42.648;23.332;2023-03-14T13:06:04;93918.28;;;15.88;28.31
65832;BME280;52593;42.648;23.332;2023-03-14T13:08:44;93907.41;;;16.07;29.75
65832;BME280;52593;42.648;23.332;2023-03-14T13:11:14;93904.22;;;16.21;27.97
65832;BME280;52593;42.648;23.332;2023-03-14T13:13:49;93896.72;;;16.35;28.06
65832;BME280;52593;42.648;23.332;2023-03-14T13:16:18;93895.41;;;16.62;27.93
65832;BME280;52593;42.648;23.332;2023-03-14T13:18:46;93872.06;;;16.32;28.15
65832;BME280;52593;42.648;23.332;2023-03-14T13:21:16;93879.69;;;16.35;27.77
65832;BME280;52593;42.648;23.332;2023-03-14T13:26:20;93866.16;;;17.86;26.25
65832;BME280;52593;42.648;23.332;2023-03-14T13:28:45;93872.44;;;18.03;26.16
65832;BME280;52593;42.648;23.332;2023-03-14T13:31:21;93867.69;;;17.47;26.05
65832;BME280;52593;42.648;23.332;2023-03-14T13:33:57;93865.03;;;18.15;24.81
65832;BME280;52593;42.648;23.332;2023-03-14T13:36:22;93856.50;;;18.63;24.62
65832;BME280;52593;42.648;23.332;2023-03-14T13:38:55;93835.03;;;19.22;23.39
65832;BME280;52593;42.648;23.332;2023-03-14T13:41:23;93837.91;;;19.38;22.59
65832;BME280;52593;42.648;23.332;2023-03-14T13:43:49;93826.69;;;19.84;22.71
65832;BME280;52593;42.648;23.332;2023-03-14T13:46:16;93820.19;;;19.85;22.52
65832;BME280;52593;42.648;23.332;2023-03-14T13:48:50;93828.13;;;18.87;23.81
65832;BME280;52593;42.648;23.332;2023-03-14T13:51:18;93818.50;;;19.24;23.69
65832;BME280;52593;42.648;23.332;2023-03-14T13:53:46;93808.69;;;20.10;22.87
65832;BME280;52593;42.648;23.332;2023-03-14T13:56:12;93802.56;;;20.78;21.62
65832;BME280;52593;42.648;23.332;2023-03-14T13:58:39;93785.84;;;21.12;21.06
65832;BME280;52593;42.648;23.332;2023-03-14T14:01:29;93800.00;;;20.56;21.96